< < Back
Terminal Aerodrome Forecast


Current Version              Previous Versions:   1  2  3  4  5  6  7  8  9  

Terminal Aerodrome Forecast

794
FTUS42 KILM 042325
TAFFLO
TAF
KFLO 042325Z 0500/0524 22006KT P6SM VCSH SCT050 SCT250
     FM051600 21008KT P6SM VCTS BKN050CB=

Latest METAR

948
SAUS70 KWBC 050500 RRI
MTRFLO
METAR KFLO 050453Z AUTO 23009KT 10SM CLR 25/19 A3008 RMK AO2 SLP182
T02500194 403170217


USA.gov is the U.S. government's official web portal to all federal, state and local government web resources and services.